sensor_id;sensor_type;location;lat;lon;timestamp;temperature;humidity
60495;DHT22;46342;49.046;11.920;2023-03-01T00:00:38;2.10;53.40
60495;DHT22;46342;49.046;11.920;2023-03-01T00:03:03;2.10;53.40
60495;DHT22;46342;49.046;11.920;2023-03-01T00:05:29;2.10;53.40
60495;DHT22;46342;49.046;11.920;2023-03-01T00:07:55;2.10;53.40
60495;DHT22;46342;49.046;11.920;2023-03-01T00:10:20;2.10;53.50
60495;DHT22;46342;49.046;11.920;2023-03-01T00:12:46;2.10;53.50
60495;DHT22;46342;49.046;11.920;2023-03-01T00:15:12;2.10;53.60
60495;DHT22;46342;49.046;11.920;2023-03-01T00:17:37;2.10;53.60
60495;DHT22;46342;49.046;11.920;2023-03-01T00:20:04;2.10;53.70
60495;DHT22;46342;49.046;11.920;2023-03-01T00:22:33;2.10;53.70
60495;DHT22;46342;49.046;11.920;2023-03-01T00:24:58;2.10;53.70
60495;DHT22;46342;49.046;11.920;2023-03-01T00:27:24;2.10;53.80
60495;DHT22;46342;49.046;11.920;2023-03-01T00:29:49;2.10;53.80
60495;DHT22;46342;49.046;11.920;2023-03-01T00:32:15;2.20;54.50
60495;DHT22;46342;49.046;11.920;2023-03-01T00:34:40;2.20;53.90
60495;DHT22;46342;49.046;11.920;2023-03-01T00:37:06;2.10;53.80
60495;DHT22;46342;49.046;11.920;2023-03-01T00:39:32;2.20;53.90
60495;DHT22;46342;49.046;11.920;2023-03-01T00:41:58;2.20;53.90
60495;DHT22;46342;49.046;11.920;2023-03-01T00:44:24;2.20;53.90
60495;DHT22;46342;49.046;11.920;2023-03-01T00:46:49;2.20;53.90
60495;DHT22;46342;49.046;11.920;2023-03-01T00:49:15;2.20;54.00
60495;DHT22;46342;49.046;11.920;2023-03-01T00:51:40;2.20;53.90
60495;DHT22;46342;49.046;11.920;2023-03-01T00:54:09;2.20;53.90
60495;DHT22;46342;49.046;11.920;2023-03-01T00:56:35;2.20;54.00
60495;DHT22;46342;49.046;11.920;2023-03-01T00:59:01;2.20;53.90
60495;DHT22;46342;49.046;11.920;2023-03-01T01:01:29;2.20;53.90
60495;DHT22;46342;49.046;11.920;2023-03-01T01:04:00;2.30;54.00
60495;DHT22;46342;49.046;11.920;2023-03-01T01:06:34;2.20;54.00
60495;DHT22;46342;49.046;11.920;2023-03-01T01:09:01;2.20;54.00
60495;DHT22;46342;49.046;11.920;2023-03-01T01:11:28;2.30;54.00
60495;DHT22;46342;49.046;11.920;2023-03-01T01:13:55;2.30;54.10
60495;DHT22;46342;49.046;11.920;2023-03-01T01:16:22;2.20;54.00
60495;DHT22;46342;49.046;11.920;2023-03-01T01:18:48;2.30;54.00
60495;DHT22;46342;49.046;11.920;2023-03-01T01:21:16;2.30;53.90
60495;DHT22;46342;49.046;11.920;2023-03-01T01:23:42;2.30;53.90
60495;DHT22;46342;49.046;11.920;2023-03-01T01:26:20;2.30;53.90
60495;DHT22;46342;49.046;11.920;2023-03-01T01:28:46;2.30;54.00
60495;DHT22;46342;49.046;11.920;2023-03-01T01:31:12;2.30;53.80
60495;DHT22;46342;49.046;11.920;2023-03-01T01:33:37;2.30;53.80
60495;DHT22;46342;49.046;11.920;2023-03-01T01:36:04;2.30;53.80
60495;DHT22;46342;49.046;11.920;2023-03-01T01:38:30;2.30;53.80
60495;DHT22;46342;49.046;11.920;2023-03-01T01:40:55;2.20;53.80
60495;DHT22;46342;49.046;11.920;2023-03-01T01:43:37;2.20;53.80
60495;DHT22;46342;49.046;11.920;2023-03-01T01:46:28;2.20;53.90
60495;DHT22;46342;49.046;11.920;2023-03-01T01:48:59;2.20;53.90
60495;DHT22;46342;49.046;11.920;2023-03-01T01:51:29;2.20;53.80
60495;DHT22;46342;49.046;11.920;2023-03-01T01:54:10;2.20;53.80
60495;DHT22;46342;49.046;11.920;2023-03-01T01:56:38;2.20;53.80
60495;DHT22;46342;49.046;11.920;2023-03-01T01:59:05;2.20;53.80
60495;DHT22;46342;49.046;11.920;2023-03-01T02:01:31;2.10;53.70
60495;DHT22;46342;49.046;11.920;2023-03-01T02:03:57;2.10;53.70
60495;DHT22;46342;49.046;11.920;2023-03-01T02:06:39;2.10;53.70
60495;DHT22;46342;49.046;11.920;2023-03-01T02:09:13;2.10;53.80
60495;DHT22;46342;49.046;11.920;2023-03-01T02:11:40;2.10;53.70
60495;DHT22;46342;49.046;11.920;2023-03-01T02:14:06;2.00;53.60
60495;DHT22;46342;49.046;11.920;2023-03-01T02:16:31;2.00;53.60
60495;DHT22;46342;49.046;11.920;2023-03-01T02:18:58;2.00;53.60
60495;DHT22;46342;49.046;11.920;2023-03-01T02:21:36;2.00;53.60
60495;DHT22;46342;49.046;11.920;2023-03-01T02:24:14;1.90;53.60
60495;DHT22;46342;49.046;11.920;2023-03-01T02:26:48;1.90;53.70
60495;DHT22;46342;49.046;11.920;2023-03-01T02:29:15;1.90;53.60
60495;DHT22;46342;49.046;11.920;2023-03-01T02:31:41;1.90;53.60
60495;DHT22;46342;49.046;11.920;2023-03-01T02:34:07;1.80;53.50
60495;DHT22;46342;49.046;11.920;2023-03-01T02:36:43;1.90;54.20
60495;DHT22;46342;49.046;11.920;2023-03-01T02:39:21;1.80;54.20
60495;DHT22;46342;49.046;11.920;2023-03-01T02:41:50;1.80;53.70
60495;DHT22;46342;49.046;11.920;2023-03-01T02:44:16;1.70;53.60
60495;DHT22;46342;49.046;11.920;2023-03-01T02:46:45;1.70;53.60
60495;DHT22;46342;49.046;11.920;2023-03-01T02:49:28;1.70;53.60
60495;DHT22;46342;49.046;11.920;2023-03-01T02:55:21;1.60;53.70
60495;DHT22;46342;49.046;11.920;2023-03-01T02:57:23;1.60;53.70
60495;DHT22;46342;49.046;11.920;2023-03-01T02:59:51;1.60;53.60
60495;DHT22;46342;49.046;11.920;2023-03-01T03:02:29;1.60;53.70
60495;DHT22;46342;49.046;11.920;2023-03-01T03:05:10;1.50;53.80
60495;DHT22;46342;49.046;11.920;2023-03-01T03:07:38;1.50;53.70
60495;DHT22;46342;49.046;11.920;2023-03-01T03:10:07;1.50;53.60
60495;DHT22;46342;49.046;11.920;2023-03-01T03:12:33;1.50;53.70
60495;DHT22;46342;49.046;11.920;2023-03-01T03:14:59;1.40;53.60
60495;DHT22;46342;49.046;11.920;2023-03-01T03:17:24;1.40;53.70
60495;DHT22;46342;49.046;11.920;2023-03-01T03:19:50;1.50;53.80
60495;DHT22;46342;49.046;11.920;2023-03-01T03:22:16;1.40;53.70
60495;DHT22;46342;49.046;11.920;2023-03-01T03:24:41;1.40;53.70
60495;DHT22;46342;49.046;11.920;2023-03-01T03:27:07;1.40;53.70
60495;DHT22;46342;49.046;11.920;2023-03-01T03:29:33;1.40;53.70
60495;DHT22;46342;49.046;11.920;2023-03-01T03:31:59;1.30;53.70
60495;DHT22;46342;49.046;11.920;2023-03-01T03:34:24;1.30;53.80
60495;DHT22;46342;49.046;11.920;2023-03-01T03:36:54;1.30;53.80
60495;DHT22;46342;49.046;11.920;2023-03-01T03:39:23;1.30;53.80
60495;DHT22;46342;49.046;11.920;2023-03-01T03:41:48;1.30;53.80
60495;DHT22;46342;49.046;11.920;2023-03-01T03:44:14;1.30;53.80
60495;DHT22;46342;49.046;11.920;2023-03-01T03:46:39;1.20;54.30
60495;DHT22;46342;49.046;11.920;2023-03-01T03:49:05;1.20;53.70
60495;DHT22;46342;49.046;11.920;2023-03-01T03:51:30;1.20;53.70
60495;DHT22;46342;49.046;11.920;2023-03-01T03:53:56;1.20;53.70
60495;DHT22;46342;49.046;11.920;2023-03-01T03:56:21;1.10;53.70
60495;DHT22;46342;49.046;11.920;2023-03-01T03:58:51;1.10;53.70
60495;DHT22;46342;49.046;11.920;2023-03-01T04:01:17;1.10;53.70
60495;DHT22;46342;49.046;11.920;2023-03-01T04:03:43;1.10;53.70
60495;DHT22;46342;49.046;11.920;2023-03-01T04:06:12;1.10;53.80
60495;DHT22;46342;49.046;11.920;2023-03-01T04:08:38;1.00;53.80
60495;DHT22;46342;49.046;11.920;2023-03-01T04:11:05;1.00;53.80
60495;DHT22;46342;49.046;11.920;2023-03-01T04:13:51;1.00;53.80
60495;DHT22;46342;49.046;11.920;2023-03-01T04:16:17;1.00;53.80
60495;DHT22;46342;49.046;11.920;2023-03-01T04:18:43;1.00;53.80
60495;DHT22;46342;49.046;11.920;2023-03-01T04:21:08;1.00;53.90
60495;DHT22;46342;49.046;11.920;2023-03-01T04:23:34;0.90;53.80
60495;DHT22;46342;49.046;11.920;2023-03-01T04:26:00;0.90;53.80
60495;DHT22;46342;49.046;11.920;2023-03-01T04:30:53;0.90;53.90
60495;DHT22;46342;49.046;11.920;2023-03-01T04:33:20;0.90;53.90
60495;DHT22;46342;49.046;11.920;2023-03-01T04:35:45;0.90;53.90
60495;DHT22;46342;49.046;11.920;2023-03-01T04:38:11;0.90;53.90
60495;DHT22;46342;49.046;11.920;2023-03-01T04:40:37;0.80;53.80
60495;DHT22;46342;49.046;11.920;2023-03-01T04:43:03;0.80;53.80
60495;DHT22;46342;49.046;11.920;2023-03-01T04:45:31;0.80;53.90
60495;DHT22;46342;49.046;11.920;2023-03-01T04:47:57;0.80;53.90
60495;DHT22;46342;49.046;11.920;2023-03-01T04:50:23;0.80;53.90
60495;DHT22;46342;49.046;11.920;2023-03-01T04:52:51;0.80;53.90
60495;DHT22;46342;49.046;11.920;2023-03-01T04:55:16;0.80;54.00
60495;DHT22;46342;49.046;11.920;2023-03-01T04:57:42;0.80;53.90
60495;DHT22;46342;49.046;11.920;2023-03-01T05:00:10;0.70;53.80
60495;DHT22;46342;49.046;11.920;2023-03-01T05:02:51;0.70;53.90
60495;DHT22;46342;49.046;11.920;2023-03-01T05:05:23;0.70;54.00
60495;DHT22;46342;49.046;11.920;2023-03-01T05:07:54;0.70;53.90
60495;DHT22;46342;49.046;11.920;2023-03-01T05:10:20;0.70;53.90
60495;DHT22;46342;49.046;11.920;2023-03-01T05:12:46;0.70;54.50
60495;DHT22;46342;49.046;11.920;2023-03-01T05:15:12;0.60;53.90
60495;DHT22;46342;49.046;11.920;2023-03-01T05:17:37;0.60;54.00
60495;DHT22;46342;49.046;11.920;2023-03-01T05:20:03;0.60;54.00
60495;DHT22;46342;49.046;11.920;2023-03-01T05:22:34;0.60;54.00
60495;DHT22;46342;49.046;11.920;2023-03-01T05:25:00;0.60;54.00
60495;DHT22;46342;49.046;11.920;2023-03-01T05:27:25;0.60;54.00
60495;DHT22;46342;49.046;11.920;2023-03-01T05:29:51;0.50;54.00
60495;DHT22;46342;49.046;11.920;2023-03-01T05:32:16;0.60;54.00
60495;DHT22;46342;49.046;11.920;2023-03-01T05:34:42;0.50;54.00
60495;DHT22;46342;49.046;11.920;2023-03-01T05:37:08;0.50;54.00
60495;DHT22;46342;49.046;11.920;2023-03-01T05:39:33;0.50;54.00
60495;DHT22;46342;49.046;11.920;2023-03-01T05:42:00;0.50;54.10
60495;DHT22;46342;49.046;11.920;2023-03-01T05:44:27;0.50;54.10
60495;DHT22;46342;49.046;11.920;2023-03-01T05:46:53;0.50;54.10
60495;DHT22;46342;49.046;11.920;2023-03-01T05:49:19;0.50;54.10
60495;DHT22;46342;49.046;11.920;2023-03-01T05:51:48;0.50;54.10
60495;DHT22;46342;49.046;11.920;2023-03-01T05:54:14;0.50;54.20
60495;DHT22;46342;49.046;11.920;2023-03-01T05:56:40;0.50;54.20
60495;DHT22;46342;49.046;11.920;2023-03-01T05:59:05;0.50;54.20
60495;DHT22;46342;49.046;11.920;2023-03-01T06:01:32;0.40;54.10
60495;DHT22;46342;49.046;11.920;2023-03-01T06:03:58;0.40;54.10
60495;DHT22;46342;49.046;11.920;2023-03-01T06:06:24;0.40;54.10
60495;DHT22;46342;49.046;11.920;2023-03-01T06:08:51;0.40;54.20
60495;DHT22;46342;49.046;11.920;2023-03-01T06:11:16;0.40;54.20
60495;DHT22;46342;49.046;11.920;2023-03-01T06:13:43;0.40;54.20
60495;DHT22;46342;49.046;11.920;2023-03-01T06:16:09;0.40;54.20
60495;DHT22;46342;49.046;11.920;2023-03-01T06:18:35;0.40;54.20
60495;DHT22;46342;49.046;11.920;2023-03-01T06:21:01;0.40;54.20
60495;DHT22;46342;49.046;11.920;2023-03-01T06:23:26;0.40;54.20
60495;DHT22;46342;49.046;11.920;2023-03-01T06:25:52;0.40;54.20
60495;DHT22;46342;49.046;11.920;2023-03-01T06:28:18;0.40;54.30
60495;DHT22;46342;49.046;11.920;2023-03-01T06:30:44;0.40;54.30
60495;DHT22;46342;49.046;11.920;2023-03-01T06:33:09;0.40;54.30
60495;DHT22;46342;49.046;11.920;2023-03-01T06:35:35;0.40;54.30
60495;DHT22;46342;49.046;11.920;2023-03-01T06:38:02;0.40;54.30
60495;DHT22;46342;49.046;11.920;2023-03-01T06:40:28;0.40;54.40
60495;DHT22;46342;49.046;11.920;2023-03-01T06:42:54;0.40;54.40
60495;DHT22;46342;49.046;11.920;2023-03-01T06:45:20;0.40;54.40
60495;DHT22;46342;49.046;11.920;2023-03-01T06:47:46;0.40;54.40
60495;DHT22;46342;49.046;11.920;2023-03-01T06:50:13;0.40;54.40
60495;DHT22;46342;49.046;11.920;2023-03-01T06:52:38;0.40;54.50
60495;DHT22;46342;49.046;11.920;2023-03-01T06:55:04;0.40;54.50
60495;DHT22;46342;49.046;11.920;2023-03-01T06:57:30;0.40;54.50
60495;DHT22;46342;49.046;11.920;2023-03-01T06:59:56;0.40;54.50
60495;DHT22;46342;49.046;11.920;2023-03-01T07:02:21;0.50;54.60
60495;DHT22;46342;49.046;11.920;2023-03-01T07:04:49;0.50;54.70
60495;DHT22;46342;49.046;11.920;2023-03-01T07:07:15;0.60;54.70
60495;DHT22;46342;49.046;11.920;2023-03-01T07:09:41;0.50;54.60
60495;DHT22;46342;49.046;11.920;2023-03-01T07:12:06;0.50;54.60
60495;DHT22;46342;49.046;11.920;2023-03-01T07:14:33;0.50;54.70
60495;DHT22;46342;49.046;11.920;2023-03-01T07:16:59;0.60;54.80
60495;DHT22;46342;49.046;11.920;2023-03-01T07:19:24;0.60;54.80
60495;DHT22;46342;49.046;11.920;2023-03-01T07:21:50;0.60;54.80
60495;DHT22;46342;49.046;11.920;2023-03-01T07:24:15;0.60;54.80
60495;DHT22;46342;49.046;11.920;2023-03-01T07:26:41;0.70;54.90
60495;DHT22;46342;49.046;11.920;2023-03-01T07:29:07;0.70;54.90
60495;DHT22;46342;49.046;11.920;2023-03-01T07:31:34;0.70;54.90
60495;DHT22;46342;49.046;11.920;2023-03-01T07:34:00;0.80;55.00
60495;DHT22;46342;49.046;11.920;2023-03-01T07:36:25;0.80;55.00
60495;DHT22;46342;49.046;11.920;2023-03-01T07:38:51;0.80;55.00
60495;DHT22;46342;49.046;11.920;2023-03-01T07:41:17;0.90;55.00
60495;DHT22;46342;49.046;11.920;2023-03-01T07:43:42;0.90;55.00
60495;DHT22;46342;49.046;11.920;2023-03-01T07:46:08;1.00;55.10
60495;DHT22;46342;49.046;11.920;2023-03-01T07:48:34;1.00;55.10
60495;DHT22;46342;49.046;11.920;2023-03-01T07:51:00;1.00;55.00
60495;DHT22;46342;49.046;11.920;2023-03-01T07:53:27;1.10;55.10
60495;DHT22;46342;49.046;11.920;2023-03-01T07:56:10;1.10;55.10
60495;DHT22;46342;49.046;11.920;2023-03-01T07:58:37;1.20;55.20
60495;DHT22;46342;49.046;11.920;2023-03-01T08:01:07;1.20;55.10
60495;DHT22;46342;49.046;11.920;2023-03-01T08:03:34;1.30;55.20
60495;DHT22;46342;49.046;11.920;2023-03-01T08:06:01;1.30;55.10
60495;DHT22;46342;49.046;11.920;2023-03-01T08:08:27;1.30;55.20
60495;DHT22;46342;49.046;11.920;2023-03-01T08:10:56;1.40;55.20
60495;DHT22;46342;49.046;11.920;2023-03-01T08:13:22;1.40;55.20
60495;DHT22;46342;49.046;11.920;2023-03-01T08:15:48;1.50;55.20
60495;DHT22;46342;49.046;11.920;2023-03-01T08:18:15;1.50;55.20
60495;DHT22;46342;49.046;11.920;2023-03-01T08:20:40;1.60;55.30
60495;DHT22;46342;49.046;11.920;2023-03-01T08:23:06;1.70;55.30
60495;DHT22;46342;49.046;11.920;2023-03-01T08:25:32;1.70;55.30
60495;DHT22;46342;49.046;11.920;2023-03-01T08:27:57;1.80;55.30
60495;DHT22;46342;49.046;11.920;2023-03-01T08:30:23;1.80;55.30
60495;DHT22;46342;49.046;11.920;2023-03-01T08:32:49;1.90;55.40
60495;DHT22;46342;49.046;11.920;2023-03-01T08:35:16;2.00;55.40
60495;DHT22;46342;49.046;11.920;2023-03-01T08:37:42;2.10;55.50
60495;DHT22;46342;49.046;11.920;2023-03-01T08:40:08;2.20;55.50
60495;DHT22;46342;49.046;11.920;2023-03-01T08:42:35;2.30;55.50
60495;DHT22;46342;49.046;11.920;2023-03-01T08:45:02;2.40;55.60
60495;DHT22;46342;49.046;11.920;2023-03-01T08:47:28;2.50;55.50
60495;DHT22;46342;49.046;11.920;2023-03-01T08:49:53;2.60;55.60
60495;DHT22;46342;49.046;11.920;2023-03-01T08:52:20;2.70;55.60
60495;DHT22;46342;49.046;11.920;2023-03-01T08:54:47;2.80;55.50
60495;DHT22;46342;49.046;11.920;2023-03-01T08:57:13;2.90;55.50
60495;DHT22;46342;49.046;11.920;2023-03-01T08:59:38;3.00;55.50
60495;DHT22;46342;49.046;11.920;2023-03-01T09:02:08;3.10;55.60
60495;DHT22;46342;49.046;11.920;2023-03-01T09:04:36;3.20;55.60
60495;DHT22;46342;49.046;11.920;2023-03-01T09:07:01;3.40;55.70
60495;DHT22;46342;49.046;11.920;2023-03-01T09:09:27;3.50;55.70
60495;DHT22;46342;49.046;11.920;2023-03-01T09:11:52;3.60;55.60
60495;DHT22;46342;49.046;11.920;2023-03-01T09:14:18;3.70;55.60
60495;DHT22;46342;49.046;11.920;2023-03-01T09:16:43;3.90;55.70
60495;DHT22;46342;49.046;11.920;2023-03-01T09:19:09;4.00;55.70
60495;DHT22;46342;49.046;11.920;2023-03-01T09:21:34;4.20;55.80
60495;DHT22;46342;49.046;11.920;2023-03-01T09:24:00;4.30;55.70
60495;DHT22;46342;49.046;11.920;2023-03-01T09:26:25;4.50;56.40
60495;DHT22;46342;49.046;11.920;2023-03-01T09:28:54;4.60;55.70
60495;DHT22;46342;49.046;11.920;2023-03-01T09:31:21;4.70;55.40
60495;DHT22;46342;49.046;11.920;2023-03-01T09:33:48;4.90;55.40
60495;DHT22;46342;49.046;11.920;2023-03-01T09:36:17;5.00;55.20
60495;DHT22;46342;49.046;11.920;2023-03-01T09:38:43;5.10;55.00
60495;DHT22;46342;49.046;11.920;2023-03-01T09:44:21;5.40;53.90
60495;DHT22;46342;49.046;11.920;2023-03-01T09:46:49;5.50;54.40
60495;DHT22;46342;49.046;11.920;2023-03-01T09:49:19;5.60;54.90
60495;DHT22;46342;49.046;11.920;2023-03-01T09:52:19;5.80;54.80
60495;DHT22;46342;49.046;11.920;2023-03-01T09:54:47;5.90;54.10
60495;DHT22;46342;49.046;11.920;2023-03-01T09:57:17;6.00;54.90
60495;DHT22;46342;49.046;11.920;2023-03-01T10:00:07;6.10;54.70
60495;DHT22;46342;49.046;11.920;2023-03-01T10:02:58;6.30;54.00
60495;DHT22;46342;49.046;11.920;2023-03-01T10:11:05;6.70;54.60
60495;DHT22;46342;49.046;11.920;2023-03-01T10:16:54;6.90;53.30
60495;DHT22;46342;49.046;11.920;2023-03-01T10:19:39;7.00;53.20
60495;DHT22;46342;49.046;11.920;2023-03-01T10:22:15;7.10;53.70
60495;DHT22;46342;49.046;11.920;2023-03-01T10:24:41;7.30;53.40
60495;DHT22;46342;49.046;11.920;2023-03-01T10:32:19;7.50;52.70
60495;DHT22;46342;49.046;11.920;2023-03-01T10:34:47;7.60;53.30
60495;DHT22;46342;49.046;11.920;2023-03-01T10:37:20;7.70;52.20
60495;DHT22;46342;49.046;11.920;2023-03-01T10:40:10;7.80;52.70
60495;DHT22;46342;49.046;11.920;2023-03-01T10:42:38;7.90;52.00
60495;DHT22;46342;49.046;11.920;2023-03-01T10:45:27;8.00;52.70
60495;DHT22;46342;49.046;11.920;2023-03-01T10:50:44;8.20;51.90
60495;DHT22;46342;49.046;11.920;2023-03-01T10:56:15;8.40;52.00
60495;DHT22;46342;49.046;11.920;2023-03-01T10:58:58;8.50;52.30
60495;DHT22;46342;49.046;11.920;2023-03-01T11:01:30;8.60;51.70
60495;DHT22;46342;49.046;11.920;2023-03-01T11:06:35;8.80;52.00
60495;DHT22;46342;49.046;11.920;2023-03-01T11:11:40;9.00;51.00
60495;DHT22;46342;49.046;11.920;2023-03-01T11:14:23;9.10;51.90
60495;DHT22;46342;49.046;11.920;2023-03-01T11:17:02;9.20;50.60
60495;DHT22;46342;49.046;11.920;2023-03-01T11:19:28;9.20;50.20
60495;DHT22;46342;49.046;11.920;2023-03-01T11:24:48;9.30;50.90
60495;DHT22;46342;49.046;11.920;2023-03-01T11:27:18;9.40;50.40
60495;DHT22;46342;49.046;11.920;2023-03-01T11:29:57;9.40;50.40
60495;DHT22;46342;49.046;11.920;2023-03-01T11:32:27;9.50;50.60
60495;DHT22;46342;49.046;11.920;2023-03-01T11:34:55;9.60;50.60
60495;DHT22;46342;49.046;11.920;2023-03-01T11:37:44;9.60;50.80
60495;DHT22;46342;49.046;11.920;2023-03-01T11:40:29;9.70;49.50
60495;DHT22;46342;49.046;11.920;2023-03-01T11:46:19;9.80;49.30
60495;DHT22;46342;49.046;11.920;2023-03-01T11:54:56;9.90;49.30
60495;DHT22;46342;49.046;11.920;2023-03-01T11:57:49;10.00;47.60
60495;DHT22;46342;49.046;11.920;2023-03-01T12:06:08;10.10;48.80
60495;DHT22;46342;49.046;11.920;2023-03-01T12:11:41;10.30;48.10
60495;DHT22;46342;49.046;11.920;2023-03-01T12:14:20;10.30;48.10
60495;DHT22;46342;49.046;11.920;2023-03-01T12:34:48;10.50;47.70
60495;DHT22;46342;49.046;11.920;2023-03-01T12:39:59;10.60;47.40
60495;DHT22;46342;49.046;11.920;2023-03-01T12:48:30;10.70;48.80
60495;DHT22;46342;49.046;11.920;2023-03-01T12:51:01;10.80;47.10
60495;DHT22;46342;49.046;11.920;2023-03-01T12:53:37;10.80;48.20
60495;DHT22;46342;49.046;11.920;2023-03-01T12:56:18;10.80;48.70
60495;DHT22;46342;49.046;11.920;2023-03-01T13:04:53;11.00;47.40
60495;DHT22;46342;49.046;11.920;2023-03-01T13:07:39;11.10;47.70
60495;DHT22;46342;49.046;11.920;2023-03-01T13:13:00;11.20;48.70
60495;DHT22;46342;49.046;11.920;2023-03-01T13:15:33;11.30;48.70
60495;DHT22;46342;49.046;11.920;2023-03-01T13:18:01;11.30;48.40
60495;DHT22;46342;49.046;11.920;2023-03-01T13:28:38;11.50;47.30
60495;DHT22;46342;49.046;11.920;2023-03-01T13:31:08;11.60;47.80
60495;DHT22;46342;49.046;11.920;2023-03-01T13:33:39;11.60;48.60
60495;DHT22;46342;49.046;11.920;2023-03-01T13:36:07;11.70;48.00
60495;DHT22;46342;49.046;11.920;2023-03-01T13:38:47;11.60;48.30
60495;DHT22;46342;49.046;11.920;2023-03-01T13:41:14;11.60;47.80
60495;DHT22;46342;49.046;11.920;2023-03-01T13:43:42;11.60;48.10
60495;DHT22;46342;49.046;11.920;2023-03-01T13:46:11;11.60;48.00
60495;DHT22;46342;49.046;11.920;2023-03-01T13:48:39;11.60;48.00
60495;DHT22;46342;49.046;11.920;2023-03-01T13:51:09;11.60;48.10
60495;DHT22;46342;49.046;11.920;2023-03-01T13:53:39;11.60;47.70
60495;DHT22;46342;49.046;11.920;2023-03-01T13:56:13;11.60;47.70
60495;DHT22;46342;49.046;11.920;2023-03-01T13:59:01;11.60;47.40
60495;DHT22;46342;49.046;11.920;2023-03-01T14:01:30;11.60;46.70
60495;DHT22;46342;49.046;11.920;2023-03-01T14:03:57;11.50;47.60
60495;DHT22;46342;49.046;11.920;2023-03-01T14:06:25;11.50;47.80
60495;DHT22;46342;49.046;11.920;2023-03-01T14:09:01;11.50;47.50
60495;DHT22;46342;49.046;11.920;2023-03-01T14:14:22;11.50;47.00
60495;DHT22;46342;49.046;11.920;2023-03-01T14:19:34;11.40;47.60
60495;DHT22;46342;49.046;11.920;2023-03-01T14:24:48;11.40;47.00
60495;DHT22;46342;49.046;11.920;2023-03-01T14:27:15;11.30;47.40
60495;DHT22;46342;49.046;11.920;2023-03-01T14:29:42;11.30;47.60
60495;DHT22;46342;49.046;11.920;2023-03-01T14:32:22;11.30;47.60
60495;DHT22;46342;49.046;11.920;2023-03-01T14:34:50;11.30;46.90
60495;DHT22;46342;49.046;11.920;2023-03-01T14:37:24;11.20;47.50
60495;DHT22;46342;49.046;11.920;2023-03-01T14:39:51;11.20;46.80
60495;DHT22;46342;49.046;11.920;2023-03-01T14:42:18;11.20;47.30
60495;DHT22;46342;49.046;11.920;2023-03-01T14:44:47;11.20;47.20
60495;DHT22;46342;49.046;11.920;2023-03-01T14:47:29;11.20;47.20
60495;DHT22;46342;49.046;11.920;2023-03-01T14:50:05;11.10;46.70
60495;DHT22;46342;49.046;11.920;2023-03-01T14:52:41;11.10;47.30
60495;DHT22;46342;49.046;11.920;2023-03-01T14:55:19;11.00;46.90
60495;DHT22;46342;49.046;11.920;2023-03-01T14:57:48;11.00;46.90
60495;DHT22;46342;49.046;11.920;2023-03-01T15:00:18;11.00;47.40
60495;DHT22;46342;49.046;11.920;2023-03-01T15:02:47;11.00;47.50
60495;DHT22;46342;49.046;11.920;2023-03-01T15:05:14;11.00;47.60
60495;DHT22;46342;49.046;11.920;2023-03-01T15:07:42;11.00;47.50
60495;DHT22;46342;49.046;11.920;2023-03-01T15:10:22;11.00;47.40
60495;DHT22;46342;49.046;11.920;2023-03-01T15:12:48;11.00;47.10
60495;DHT22;46342;49.046;11.920;2023-03-01T15:15:33;11.00;47.50
60495;DHT22;46342;49.046;11.920;2023-03-01T15:18:22;11.00;47.10
60495;DHT22;46342;49.046;11.920;2023-03-01T15:20:51;10.90;46.70
60495;DHT22;46342;49.046;11.920;2023-03-01T15:23:28;10.90;47.60
60495;DHT22;46342;49.046;11.920;2023-03-01T15:25:55;10.90;47.10
60495;DHT22;46342;49.046;11.920;2023-03-01T15:28:34;11.10;47.00
60495;DHT22;46342;49.046;11.920;2023-03-01T15:33:42;10.90;47.40
60495;DHT22;46342;49.046;11.920;2023-03-01T15:36:36;10.90;47.60
60495;DHT22;46342;49.046;11.920;2023-03-01T15:39:03;10.90;47.00
60495;DHT22;46342;49.046;11.920;2023-03-01T15:41:46;10.80;47.60
60495;DHT22;46342;49.046;11.920;2023-03-01T15:44:24;10.80;47.00
60495;DHT22;46342;49.046;11.920;2023-03-01T15:46:50;10.80;47.40
60495;DHT22;46342;49.046;11.920;2023-03-01T15:49:40;10.80;47.70
60495;DHT22;46342;49.046;11.920;2023-03-01T15:52:15;10.80;46.90
60495;DHT22;46342;49.046;11.920;2023-03-01T15:54:44;10.70;47.20
60495;DHT22;46342;49.046;11.920;2023-03-01T15:57:14;10.70;47.60
60495;DHT22;46342;49.046;11.920;2023-03-01T15:59:40;10.70;47.50
60495;DHT22;46342;49.046;11.920;2023-03-01T16:02:11;10.60;47.60
60495;DHT22;46342;49.046;11.920;2023-03-01T16:04:38;10.60;47.30
60495;DHT22;46342;49.046;11.920;2023-03-01T16:07:04;10.60;47.50
60495;DHT22;46342;49.046;11.920;2023-03-01T16:09:30;10.50;47.40
60495;DHT22;46342;49.046;11.920;2023-03-01T16:11:56;10.50;47.50
60495;DHT22;46342;49.046;11.920;2023-03-01T16:14:21;10.40;47.40
60495;DHT22;46342;49.046;11.920;2023-03-01T16:16:47;10.40;47.40
60495;DHT22;46342;49.046;11.920;2023-03-01T16:19:14;10.30;47.40
60495;DHT22;46342;49.046;11.920;2023-03-01T16:21:40;10.30;47.40
60495;DHT22;46342;49.046;11.920;2023-03-01T16:24:07;10.20;47.30
60495;DHT22;46342;49.046;11.920;2023-03-01T16:26:33;10.10;47.30
60495;DHT22;46342;49.046;11.920;2023-03-01T16:28:58;10.10;47.30
60495;DHT22;46342;49.046;11.920;2023-03-01T16:31:24;10.00;47.30
60495;DHT22;46342;49.046;11.920;2023-03-01T16:33:56;9.90;48.10
60495;DHT22;46342;49.046;11.920;2023-03-01T16:36:24;9.90;48.00
60495;DHT22;46342;49.046;11.920;2023-03-01T16:38:51;9.80;48.00
60495;DHT22;46342;49.046;11.920;2023-03-01T16:41:18;9.70;48.00
60495;DHT22;46342;49.046;11.920;2023-03-01T16:43:45;9.60;48.00
60495;DHT22;46342;49.046;11.920;2023-03-01T16:46:22;9.60;48.10
60495;DHT22;46342;49.046;11.920;2023-03-01T16:48:49;9.50;47.90
60495;DHT22;46342;49.046;11.920;2023-03-01T16:51:14;9.40;48.10
60495;DHT22;46342;49.046;11.920;2023-03-01T16:53:40;9.30;48.10
60495;DHT22;46342;49.046;11.920;2023-03-01T16:56:09;9.30;48.20
60495;DHT22;46342;49.046;11.920;2023-03-01T16:58:36;9.20;48.10
60495;DHT22;46342;49.046;11.920;2023-03-01T17:01:10;9.10;48.10
60495;DHT22;46342;49.046;11.920;2023-03-01T17:03:37;9.10;48.10
60495;DHT22;46342;49.046;11.920;2023-03-01T17:06:05;9.00;48.30
60495;DHT22;46342;49.046;11.920;2023-03-01T17:08:31;8.90;48.20
60495;DHT22;46342;49.046;11.920;2023-03-01T17:11:03;8.80;48.30
60495;DHT22;46342;49.046;11.920;2023-03-01T17:13:29;8.70;48.20
60495;DHT22;46342;49.046;11.920;2023-03-01T17:15:54;8.70;48.30
60495;DHT22;46342;49.046;11.920;2023-03-01T17:18:20;8.60;48.40
60495;DHT22;46342;49.046;11.920;2023-03-01T17:20:45;8.50;48.40
60495;DHT22;46342;49.046;11.920;2023-03-01T17:23:11;8.50;48.40
60495;DHT22;46342;49.046;11.920;2023-03-01T17:25:42;8.40;48.40
60495;DHT22;46342;49.046;11.920;2023-03-01T17:28:08;8.30;48.40